Time;durP1;ratioP1;P1;durP2;ratioP2;P2;SDS_P1;SDS_P2;PMS_P1;PMS_P2;Temp;Humidity;BMP_temperature;BMP_pressure;BME280_temperature;BME280_humidity;BME280_pressure;Samples;Min_cycle;Max_cycle;Signal;HPM_P1;HPM_P2
2022/08/27 00:04:20;;;;;;;;;;;;;;;16.1;55.87695;101893.1;;;;-75
2022/08/27 00:09:20;;;;;;;;;;;;;;;16.03;56.14063;101892.3;;;;-74
2022/08/27 00:14:19;;;;;;;;;;;;;;;15.98;56.13379;101890.5;;;;-74
2022/08/27 00:19:20;;;;;;;;;;;;;;;15.93;56.32813;101886.8;;;;-76
2022/08/27 00:22:29;;;;;;;3.2;1.3;;;;;;;;;;;;;-75
2022/08/27 00:24:20;;;;;;;;;;;;;;;15.87;56.25391;101873.1;;;;-74
2022/08/27 00:29:19;;;;;;;;;;;;;;;15.89;56.3125;101877.9;;;;-75
2022/08/27 00:34:19;;;;;;;;;;;;;;;15.84;56.27344;101871.1;;;;-76
2022/08/27 00:39:20;;;;;;;;;;;;;;;15.81;56.40527;101867.1;;;;-75
2022/08/27 00:44:20;;;;;;;;;;;;;;;15.75;56.47559;101866.2;;;;-75
2022/08/27 00:49:21;;;;;;;;;;;;;;;15.72;56.4707;101868.8;;;;-74
2022/08/27 00:52:33;;;;;;;2.5;1.1;;;;;;;;;;;;;-74
2022/08/27 00:54:19;;;;;;;;;;;;;;;15.68;56.50098;101867.4;;;;-75
2022/08/27 00:59:20;;;;;;;;;;;;;;;15.62;56.61719;101874.9;;;;-74
2022/08/27 01:04:19;;;;;;;;;;;;;;;15.6;56.6377;101879.5;;;;-73
2022/08/27 01:09:20;;;;;;;;;;;;;;;15.57;56.79004;101880.4;;;;-75
2022/08/27 01:14:21;;;;;;;;;;;;;;;15.53;56.76465;101886;;;;-75
2022/08/27 01:19:24;;;;;;;;;;;;;;;15.5;56.72559;101880;;;;-75
2022/08/27 01:22:37;;;;;;;3.6;1;;;;;;;;;;;;;-76
2022/08/27 01:24:28;;;;;;;;;;;;;;;15.48;56.85742;101880.6;;;;-75
2022/08/27 01:29:20;;;;;;;;;;;;;;;15.44;56.81934;101877.3;;;;-74
2022/08/27 01:34:20;;;;;;;;;;;;;;;15.41;56.84961;101873;;;;-75
2022/08/27 01:39:19;;;;;;;;;;;;;;;15.36;57.06738;101876.4;;;;-76
2022/08/27 01:44:20;;;;;;;;;;;;;;;15.32;57.12988;101873.7;;;;-75
2022/08/27 01:49:20;;;;;;;;;;;;;;;15.3;57.15039;101877.9;;;;-74
2022/08/27 01:52:35;;;;;;;3.3;1.1;;;;;;;;;;;;;-76
2022/08/27 01:54:20;;;;;;;;;;;;;;;15.25;57.07617;101872.1;;;;-75
2022/08/27 01:59:19;;;;;;;;;;;;;;;15.23;57.15137;101869.6;;;;-75
2022/08/27 02:04:20;;;;;;;;;;;;;;;15.23;57.08594;101866.2;;;;-75
2022/08/27 02:09:20;;;;;;;;;;;;;;;15.17;57.2002;101867.5;;;;-75
2022/08/27 02:14:19;;;;;;;;;;;;;;;15.16;57.16602;101863.2;;;;-74
2022/08/27 02:19:20;;;;;;;;;;;;;;;15.13;57.33008;101856.8;;;;-75
2022/08/27 02:22:37;;;;;;;3;1.1;;;;;;;;;;;;;-74
2022/08/27 02:24:20;;;;;;;;;;;;;;;15.15;57.20801;101860.7;;;;-74
2022/08/27 02:29:19;;;;;;;;;;;;;;;15.11;57.35156;101854;;;;-73
2022/08/27 02:34:20;;;;;;;;;;;;;;;15.07;57.39063;101854.4;;;;-74
2022/08/27 02:39:20;;;;;;;;;;;;;;;15.01;57.43945;101853.5;;;;-75
2022/08/27 02:44:19;;;;;;;;;;;;;;;14.97;57.56836;101852.6;;;;-74
2022/08/27 02:49:20;;;;;;;;;;;;;;;14.96;57.60156;101853.8;;;;-75
2022/08/27 02:52:39;;;;;;;1.8;1;;;;;;;;;;;;;-75
2022/08/27 02:54:20;;;;;;;;;;;;;;;14.97;57.5127;101851.7;;;;-74
2022/08/27 02:59:20;;;;;;;;;;;;;;;14.97;57.55762;101852.9;;;;-74
2022/08/27 03:04:21;;;;;;;;;;;;;;;14.96;57.66895;101849.1;;;;-75
2022/08/27 03:09:19;;;;;;;;;;;;;;;14.98;57.66016;101846;;;;-75
2022/08/27 03:14:22;;;;;;;;;;;;;;;15;57.62988;101843.6;;;;-75
2022/08/27 03:19:20;;;;;;;;;;;;;;;15.02;57.66406;101839.8;;;;-74
2022/08/27 03:22:41;;;;;;;1.7;1;;;;;;;;;;;;;-75
2022/08/27 03:24:19;;;;;;;;;;;;;;;15.07;57.55957;101836.7;;;;-75
2022/08/27 03:29:19;;;;;;;;;;;;;;;15.09;57.51758;101835.5;;;;-74
2022/08/27 03:34:19;;;;;;;;;;;;;;;15.12;57.4541;101832.9;;;;-75
2022/08/27 03:39:19;;;;;;;;;;;;;;;15.17;57.44922;101830.7;;;;-75
2022/08/27 03:44:20;;;;;;;;;;;;;;;15.24;57.2998;101829.3;;;;-75
2022/08/27 03:49:20;;;;;;;;;;;;;;;15.32;57.1416;101830;;;;-74
2022/08/27 03:52:42;;;;;;;3.6;0.9;;;;;;;;;;;;;-76
2022/08/27 03:54:20;;;;;;;;;;;;;;;15.37;57.125;101831.2;;;;-75
2022/08/27 03:59:20;;;;;;;;;;;;;;;15.44;57.04492;101831.7;;;;-75
2022/08/27 04:04:20;;;;;;;;;;;;;;;15.5;56.89551;101829.7;;;;-75
2022/08/27 04:09:20;;;;;;;;;;;;;;;15.59;56.77051;101837.1;;;;-74
2022/08/27 04:14:20;;;;;;;;;;;;;;;15.64;56.6875;101834.2;;;;-75
2022/08/27 04:19:20;;;;;;;;;;;;;;;15.67;56.71484;101834.2;;;;-74
2022/08/27 04:22:44;;;;;;;3.5;1.1;;;;;;;;;;;;;-76
2022/08/27 04:24:19;;;;;;;;;;;;;;;15.73;56.62012;101839.7;;;;-74
2022/08/27 04:29:20;;;;;;;;;;;;;;;15.76;56.5332;101841.6;;;;-76
2022/08/27 04:34:20;;;;;;;;;;;;;;;15.76;56.54492;101842.2;;;;-74
2022/08/27 04:39:22;;;;;;;;;;;;;;;15.77;56.45508;101842.8;;;;-74
2022/08/27 04:44:19;;;;;;;;;;;;;;;15.77;56.44434;101842;;;;-76
2022/08/27 04:49:20;;;;;;;;;;;;;;;15.74;56.61035;101846.7;;;;-76
2022/08/27 04:52:46;;;;;;;3;1.4;;;;;;;;;;;;;-75
2022/08/27 04:54:19;;;;;;;;;;;;;;;15.77;56.66992;101853.4;;;;-75
2022/08/27 04:59:19;;;;;;;;;;;;;;;15.76;56.62305;101852.7;;;;-74
2022/08/27 05:04:21;;;;;;;;;;;;;;;15.75;56.72363;101853.4;;;;-75
2022/08/27 05:09:20;;;;;;;;;;;;;;;15.76;56.73633;101857.7;;;;-75
2022/08/27 05:14:22;;;;;;;;;;;;;;;15.75;56.83691;101858.5;;;;-75
2022/08/27 05:19:20;;;;;;;;;;;;;;;15.73;56.81152;101864.4;;;;-75
2022/08/27 05:22:48;;;;;;;3.7;1.3;;;;;;;;;;;;;-75
2022/08/27 05:24:20;;;;;;;;;;;;;;;15.71;56.78711;101859.1;;;;-76
2022/08/27 05:29:21;;;;;;;;;;;;;;;15.69;56.73828;101857;;;;-74
2022/08/27 05:34:20;;;;;;;;;;;;;;;15.67;56.84863;101862.9;;;;-76
2022/08/27 05:39:20;;;;;;;;;;;;;;;15.65;56.74512;101865;;;;-75
2022/08/27 05:44:20;;;;;;;;;;;;;;;15.6;56.71484;101867;;;;-76
2022/08/27 05:49:20;;;;;;;;;;;;;;;15.67;56.74707;101873.6;;;;-75
2022/08/27 05:52:52;;;;;;;2.2;1.3;;;;;;;;;;;;;-75
2022/08/27 05:54:21;;;;;;;;;;;;;;;15.7;56.67188;101876;;;;-76
2022/08/27 06:04:20;;;;;;;;;;;;;;;15.85;56.46582;101872.4;;;;-75
2022/08/27 06:09:21;;;;;;;;;;;;;;;15.95;56.46777;101872.5;;;;-76
2022/08/27 06:14:19;;;;;;;;;;;;;;;16.03;56.46582;101866.2;;;;-76
2022/08/27 06:19:19;;;;;;;;;;;;;;;16.13;56.34277;101862.4;;;;-76
2022/08/27 06:22:51;;;;;;;4.2;1.6;;;;;;;;;;;;;-74
2022/08/27 06:24:21;;;;;;;;;;;;;;;16.23;56.32129;101863.6;;;;-77
2022/08/27 06:29:20;;;;;;;;;;;;;;;16.34;56.17871;101868.9;;;;-75
2022/08/27 06:34:22;;;;;;;;;;;;;;;16.46;56.0918;101869.6;;;;-75
2022/08/27 06:39:19;;;;;;;;;;;;;;;16.56;56.17285;101871.6;;;;-74
2022/08/27 06:44:19;;;;;;;;;;;;;;;16.66;56.00488;101875.1;;;;-75
2022/08/27 06:49:20;;;;;;;;;;;;;;;16.78;55.89648;101875.7;;;;-76
2022/08/27 06:52:53;;;;;;;2.9;1.4;;;;;;;;;;;;;-76
2022/08/27 06:54:19;;;;;;;;;;;;;;;16.9;55.71875;101875.1;;;;-75
2022/08/27 06:59:21;;;;;;;;;;;;;;;17.02;55.70996;101872.3;;;;-74
2022/08/27 07:04:21;;;;;;;;;;;;;;;17.16;55.53613;101870.1;;;;-75
2022/08/27 07:09:21;;;;;;;;;;;;;;;17.3;55.50781;101874.2;;;;-74
2022/08/27 07:14:20;;;;;;;;;;;;;;;17.42;55.49023;101879.4;;;;-74
2022/08/27 07:19:19;;;;;;;;;;;;;;;17.59;55.19336;101882.3;;;;-74
2022/08/27 07:22:57;;;;;;;6;1.6;;;;;;;;;;;;;-74
2022/08/27 07:24:20;;;;;;;;;;;;;;;17.75;55.01953;101883.7;;;;-75
2022/08/27 07:29:24;;;;;;;;;;;;;;;17.92;54.80469;101882.6;;;;-76
2022/08/27 07:34:19;;;;;;;;;;;;;;;18.11;54.73633;101888.7;;;;-73
2022/08/27 07:39:19;;;;;;;;;;;;;;;18.28;55.1543;101888.3;;;;-74
2022/08/27 07:44:29;;;;;;;;;;;;;;;18.45;55.24414;101895.5;;;;-74
2022/08/27 07:49:21;;;;;;;;;;;;;;;18.59;55.2041;101900.9;;;;-76
2022/08/27 07:52:58;;;;;;;3.3;1.3;;;;;;;;;;;;;-75
2022/08/27 07:54:23;;;;;;;;;;;;;;;18.72;54.70996;101906.2;;;;-75
2022/08/27 07:59:20;;;;;;;;;;;;;;;18.82;54.79102;101905.4;;;;-75
2022/08/27 08:04:21;;;;;;;;;;;;;;;18.92;54.81348;101912;;;;-75
2022/08/27 08:09:20;;;;;;;;;;;;;;;19.02;54.71191;101915.1;;;;-75
2022/08/27 08:14:20;;;;;;;;;;;;;;;19.12;54.31641;101918.4;;;;-75
2022/08/27 08:19:19;;;;;;;;;;;;;;;19.25;53.99023;101922.2;;;;-75
2022/08/27 08:23:01;;;;;;;2.6;1.1;;;;;;;;;;;;;-74
2022/08/27 08:24:20;;;;;;;;;;;;;;;19.41;53.56641;101930.6;;;;-75
2022/08/27 08:29:20;;;;;;;;;;;;;;;19.58;53.24512;101930;;;;-74
2022/08/27 08:34:20;;;;;;;;;;;;;;;19.77;52.91406;101939.3;;;;-75
2022/08/27 08:39:20;;;;;;;;;;;;;;;19.91;52.72559;101936.6;;;;-74
2022/08/27 08:44:29;;;;;;;;;;;;;;;20.02;52.39746;101936.7;;;;-75
2022/08/27 08:53:05;;;;;;;2.7;1.2;;;;;;;;;;;;;-73
2022/08/27 08:54:22;;;;;;;;;;;;;;;20.24;52.20605;101940;;;;-75
2022/08/27 08:59:23;;;;;;;;;;;;;;;20.3;52.12207;101936;;;;-72
2022/08/27 09:04:20;;;;;;;;;;;;;;;20.44;52.02441;101945;;;;-70
2022/08/27 09:09:23;;;;;;;;;;;;;;;20.54;51.73926;101942.8;;;;-70
2022/08/27 09:14:25;;;;;;;;;;;;;;;20.65;51.6709;101940.9;;;;-75
2022/08/27 09:19:20;;;;;;;;;;;;;;;20.78;51.52637;101950.5;;;;-75
2022/08/27 09:23:09;;;;;;;2.9;1.2;;;;;;;;;;;;;-77
2022/08/27 09:24:24;;;;;;;;;;;;;;;20.89;51.23145;101951.6;;;;-73
2022/08/27 09:29:21;;;;;;;;;;;;;;;20.99;51.16113;101951.3;;;;-74
2022/08/27 09:34:19;;;;;;;;;;;;;;;21.09;51.03711;101955;;;;-76
2022/08/27 09:39:19;;;;;;;;;;;;;;;21.19;50.97949;101949.2;;;;-75
2022/08/27 09:44:21;;;;;;;;;;;;;;;21.28;50.7832;101954.5;;;;-76
2022/08/27 09:49:20;;;;;;;;;;;;;;;21.39;50.64844;101949.8;;;;-75
2022/08/27 09:53:19;;;;;;;4.4;1.2;;;;;;;;;;;;;-73
2022/08/27 09:54:30;;;;;;;;;;;;;;;21.5;50.48828;101945.2;;;;-75
2022/08/27 09:59:26;;;;;;;;;;;;;;;21.69;50.68164;101940.8;;;;-75
2022/08/27 10:04:26;;;;;;;;;;;;;;;22.23;50.3877;101935;;;;-75
2022/08/27 10:09:22;;;;;;;;;;;;;;;22.79;49.07227;101933.1;;;;-75
2022/08/27 10:14:23;;;;;;;;;;;;;;;23.13;48.10938;101931;;;;-75
2022/08/27 10:19:27;;;;;;;;;;;;;;;23.34;47.55762;101925.9;;;;-75
2022/08/27 10:23:22;;;;;;;3.7;1.2;;;;;;;;;;;;;-78
2022/08/27 10:24:24;;;;;;;;;;;;;;;23.53;47.19824;101922.7;;;;-77
2022/08/27 10:29:24;;;;;;;;;;;;;;;23.63;47.12793;101922.5;;;;-74
2022/08/27 10:34:30;;;;;;;;;;;;;;;23.94;47.77051;101925.2;;;;-74
2022/08/27 10:39:26;;;;;;;;;;;;;;;24.6;48.26758;101918.8;;;;-76
2022/08/27 10:44:30;;;;;;;;;;;;;;;25.45;47.66602;101914.9;;;;-76
2022/08/27 10:49:23;;;;;;;;;;;;;;;26.15;46.70996;101913.7;;;;-76
2022/08/27 10:53:25;;;;;;;4.2;1.1;;;;;;;;;;;;;-75
2022/08/27 10:54:27;;;;;;;;;;;;;;;26.39;44.92773;101924.9;;;;-75
2022/08/27 10:59:24;;;;;;;;;;;;;;;26.29;44.39551;101926.8;;;;-75
2022/08/27 11:04:23;;;;;;;;;;;;;;;26.12;44.34375;101928.8;;;;-75
2022/08/27 11:09:24;;;;;;;;;;;;;;;26.08;44.39844;101926.1;;;;-75
2022/08/27 11:14:27;;;;;;;;;;;;;;;26.32;43.73828;101921.9;;;;-75
2022/08/27 11:19:22;;;;;;;;;;;;;;;26.51;43.80273;101919.5;;;;-75
2022/08/27 11:23:24;;;;;;;3.9;1;;;;;;;;;;;;;-75
2022/08/27 11:24:27;;;;;;;;;;;;;;;26.51;43.41992;101922.4;;;;-76
2022/08/27 11:29:24;;;;;;;;;;;;;;;26.53;42.70215;101918.5;;;;-76
2022/08/27 11:34:24;;;;;;;;;;;;;;;26.53;42.67871;101915.9;;;;-75
2022/08/27 11:39:27;;;;;;;;;;;;;;;26.5;42.46777;101911.4;;;;-73
2022/08/27 11:44:20;;;;;;;;;;;;;;;26.52;41.62305;101910.5;;;;-76
2022/08/27 11:49:29;;;;;;;;;;;;;;;26.5;41.87598;101907.4;;;;-75
2022/08/27 11:53:27;;;;;;;2.9;0.8;;;;;;;;;;;;;-75
2022/08/27 11:54:30;;;;;;;;;;;;;;;26.35;41.95508;101905.7;;;;-75
2022/08/27 11:59:34;;;;;;;;;;;;;;;26.27;42.22559;101900.1;;;;-74
2022/08/27 12:04:35;;;;;;;;;;;;;;;26.35;41.39746;101903.6;;;;-76
2022/08/27 12:09:22;;;;;;;;;;;;;;;26.29;41.69434;101907.5;;;;-76
2022/08/27 12:14:27;;;;;;;;;;;;;;;26.18;41.97363;101907.5;;;;-76
2022/08/27 12:19:25;;;;;;;;;;;;;;;26.08;42.16113;101905.5;;;;-76
2022/08/27 12:23:45;;;;;;;2.5;0.8;;;;;;;;;;;;;-75
2022/08/27 12:24:31;;;;;;;;;;;;;;;26;42.43164;101905.5;;;;-76
2022/08/27 12:29:28;;;;;;;;;;;;;;;25.92;42.10059;101906.1;;;;-76
2022/08/27 12:34:21;;;;;;;;;;;;;;;25.87;42.17676;101904.5;;;;-76
2022/08/27 12:39:21;;;;;;;;;;;;;;;25.85;42.10449;101906.1;;;;-71
2022/08/27 12:44:26;;;;;;;;;;;;;;;26.06;42.20508;101899.3;;;;-78
2022/08/27 12:49:20;;;;;;;;;;;;;;;26.47;41.94238;101894;;;;-75
2022/08/27 12:53:48;;;;;;;3.3;0.8;;;;;;;;;;;;;-76
2022/08/27 12:54:27;;;;;;;;;;;;;;;26.76;42.49121;101902.8;;;;-75
2022/08/27 12:59:30;;;;;;;;;;;;;;;27;42.08496;101897.8;;;;-75
2022/08/27 13:04:26;;;;;;;;;;;;;;;27.33;41.01074;101900.8;;;;-77
2022/08/27 13:09:27;;;;;;;;;;;;;;;27.57;41.41699;101897.7;;;;-75
2022/08/27 13:14:22;;;;;;;;;;;;;;;27.59;41.60449;101889.4;;;;-75
2022/08/27 13:19:26;;;;;;;;;;;;;;;27.45;40.70801;101889.5;;;;-76
2022/08/27 13:23:36;;;;;;;3.7;0.8;;;;;;;;;;;;;-75
2022/08/27 13:24:22;;;;;;;;;;;;;;;27.31;40.61426;101890.3;;;;-77
2022/08/27 13:29:20;;;;;;;;;;;;;;;27.39;41.27246;101889.7;;;;-76
2022/08/27 13:34:22;;;;;;;;;;;;;;;27.79;41.12305;101886.4;;;;-75
2022/08/27 13:39:20;;;;;;;;;;;;;;;28.24;40.17285;101891;;;;-76
2022/08/27 13:44:22;;;;;;;;;;;;;;;28.32;40.22656;101895;;;;-76
2022/08/27 13:49:23;;;;;;;;;;;;;;;28.37;40.04492;101896.8;;;;-76
2022/08/27 13:54:22;;;;;;;;;;;;;;;28.61;39.4248;101892.1;;;;-76
2022/08/27 13:59:26;;;;;;;;;;;;;;;28.84;39.52637;101901;;;;-75
2022/08/27 14:04:25;;;;;;;;;;;;;;;29.04;39.2627;101895.3;;;;-73
2022/08/27 14:09:25;;;;;;;;;;;;;;;29.14;39.58691;101894.5;;;;-77
2022/08/27 14:14:21;;;;;;;;;;;;;;;29.33;39.25391;101897.8;;;;-74
2022/08/27 14:19:28;;;;;;;;;;;;;;;29.5;39.19824;101896.7;;;;-77
2022/08/27 14:23:46;;;;;;;2.5;0.7;;;;;;;;;;;;;-76
2022/08/27 14:24:19;;;;;;;;;;;;;;;29.71;38.68945;101900.1;;;;-74
2022/08/27 14:29:22;;;;;;;;;;;;;;;29.67;38.75586;101901.6;;;;-73
2022/08/27 14:34:19;;;;;;;;;;;;;;;29.42;38.88672;101898.5;;;;-74
2022/08/27 14:39:20;;;;;;;;;;;;;;;29.33;38.33008;101907.7;;;;-76
2022/08/27 14:44:19;;;;;;;;;;;;;;;29.43;38.18652;101915.2;;;;-74
2022/08/27 14:49:26;;;;;;;;;;;;;;;29.4;38.16113;101919.2;;;;-75
2022/08/27 14:53:51;;;;;;;2.6;0.6;;;;;;;;;;;;;-74
2022/08/27 14:54:19;;;;;;;;;;;;;;;29.23;38.34473;101921;;;;-75
2022/08/27 14:59:22;;;;;;;;;;;;;;;29.07;38.45996;101926.8;;;;-75
2022/08/27 15:04:21;;;;;;;;;;;;;;;29.07;38.12109;101933.2;;;;-78
2022/08/27 15:09:19;;;;;;;;;;;;;;;29.01;38.16309;101937.5;;;;-75
2022/08/27 15:14:23;;;;;;;;;;;;;;;28.73;37.87012;101941.7;;;;-77
2022/08/27 15:19:19;;;;;;;;;;;;;;;28.4;38.04199;101946;;;;-75
2022/08/27 15:24:01;;;;;;;2.5;0.9;;;;;;;;;;;;;-75
2022/08/27 15:24:21;;;;;;;;;;;;;;;28.15;38.26465;101950.2;;;;-76
2022/08/27 15:29:19;;;;;;;;;;;;;;;27.89;38;101948.2;;;;-76
2022/08/27 15:34:19;;;;;;;;;;;;;;;27.54;38.14453;101950;;;;-74
2022/08/27 15:39:19;;;;;;;;;;;;;;;27.17;39.29883;101954.3;;;;-76
2022/08/27 15:44:20;;;;;;;;;;;;;;;26.81;39.88379;101959.3;;;;-77
2022/08/27 15:49:19;;;;;;;;;;;;;;;26.62;40.01758;101950.2;;;;-76
2022/08/27 15:54:00;;;;;;;2.9;0.9;;;;;;;;;;;;;-76
2022/08/27 15:54:19;;;;;;;;;;;;;;;26.64;38.99805;101951.4;;;;-75
2022/08/27 15:59:21;;;;;;;;;;;;;;;26.7;39.03711;101948.9;;;;-75
2022/08/27 16:04:22;;;;;;;;;;;;;;;26.8;38.98828;101942.9;;;;-75
2022/08/27 16:09:20;;;;;;;;;;;;;;;26.89;38.77441;101946.9;;;;-75
2022/08/27 16:14:19;;;;;;;;;;;;;;;26.95;38.62891;101947.3;;;;-74
2022/08/27 16:19:20;;;;;;;;;;;;;;;27;38.54004;101948.8;;;;-76
2022/08/27 16:24:04;;;;;;;3.2;1;;;;;;;;;;;;;-75
2022/08/27 16:24:20;;;;;;;;;;;;;;;26.94;38.45313;101933.4;;;;-75
2022/08/27 16:29:20;;;;;;;;;;;;;;;27;38.70313;101950.2;;;;-76
2022/08/27 16:34:21;;;;;;;;;;;;;;;27;38.44727;101943;;;;-72
2022/08/27 16:39:19;;;;;;;;;;;;;;;26.94;38.39551;101947.5;;;;-71
2022/08/27 16:44:19;;;;;;;;;;;;;;;26.85;38.64355;101943.7;;;;-72
2022/08/27 16:54:09;;;;;;;3.6;1.4;;;;;;;;;;;;;-76
2022/08/27 16:54:20;;;;;;;;;;;;;;;26.66;39.00977;101944.3;;;;-73
2022/08/27 16:59:19;;;;;;;;;;;;;;;26.55;39.00195;101951;;;;-76
2022/08/27 17:04:20;;;;;;;;;;;;;;;26.41;39.34863;101952;;;;-75
2022/08/27 17:09:20;;;;;;;;;;;;;;;26.22;39.18262;101953.8;;;;-76
2022/08/27 17:14:19;;;;;;;;;;;;;;;26.01;39.24414;101957.1;;;;-76
2022/08/27 17:19:21;;;;;;;;;;;;;;;25.81;39.71387;101957.4;;;;-76
2022/08/27 17:24:13;;;;;;;4.9;1.8;;;;;;;;;;;;;-75
2022/08/27 17:24:23;;;;;;;;;;;;;;;25.53;39.79297;101944.3;;;;-75
2022/08/27 17:29:19;;;;;;;;;;;;;;;25.34;39.98535;101956.5;;;;-73
2022/08/27 17:34:23;;;;;;;;;;;;;;;25.11;40.34668;101962.3;;;;-76
2022/08/27 17:39:19;;;;;;;;;;;;;;;24.88;40.68457;101960.2;;;;-74
2022/08/27 17:44:22;;;;;;;;;;;;;;;24.64;40.68555;101963;;;;-76
2022/08/27 17:49:20;;;;;;;;;;;;;;;24.33;40.72656;101966.8;;;;-76
2022/08/27 17:54:24;;;;;;;5.9;1.7;;;;;;;;;;;;;-75
2022/08/27 17:54:38;;;;;;;;;;;;;;;24.02;41.16016;101965.9;;;;-74
2022/08/27 17:59:19;;;;;;;;;;;;;;;23.75;41.50391;101970.1;;;;-75
2022/08/27 18:04:20;;;;;;;;;;;;;;;23.43;41.75293;101972.8;;;;-76
2022/08/27 18:09:22;;;;;;;;;;;;;;;23.18;42.00586;101973.6;;;;-76
2022/08/27 18:14:20;;;;;;;;;;;;;;;22.9;42.25586;101976.2;;;;-79
2022/08/27 18:19:21;;;;;;;;;;;;;;;22.62;42.49316;101982;;;;-75
2022/08/27 18:24:20;;;;;;;;;;;;;;;22.32;42.79785;101984.3;;;;-76
2022/08/27 18:24:29;;;;;;;4.9;1.9;;;;;;;;;;;;;-76
2022/08/27 18:29:19;;;;;;;;;;;;;;;22.05;43.16309;101984;;;;-74
2022/08/27 18:34:19;;;;;;;;;;;;;;;21.79;43.41309;101990;;;;-75
2022/08/27 18:39:22;;;;;;;;;;;;;;;21.5;43.86719;101989.7;;;;-74
2022/08/27 18:44:19;;;;;;;;;;;;;;;21.25;44.3457;102003.9;;;;-77
2022/08/27 18:49:21;;;;;;;;;;;;;;;20.97;44.90332;102005.2;;;;-75
2022/08/27 18:54:26;;;;;;;;;;;;;;;20.75;45.34961;102017.5;;;;-71
2022/08/27 18:54:35;;;;;;;5.9;2.1;;;;;;;;;;;;;-71
2022/08/27 18:59:24;;;;;;;;;;;;;;;20.53;45.73828;102017.4;;;;-71
2022/08/27 19:04:19;;;;;;;;;;;;;;;20.35;46.05176;102023.9;;;;-71
2022/08/27 19:09:21;;;;;;;;;;;;;;;20.15;46.45313;102024.3;;;;-71
2022/08/27 19:14:19;;;;;;;;;;;;;;;19.96;46.75391;102028.9;;;;-71
2022/08/27 19:19:21;;;;;;;;;;;;;;;19.78;46.92773;102032.1;;;;-71
2022/08/27 19:24:20;;;;;;;;;;;;;;;19.6;47.29785;102035;;;;-71
2022/08/27 19:24:29;;;;;;;6;2.1;;;;;;;;;;;;;-71
2022/08/27 19:29:19;;;;;;;;;;;;;;;19.44;47.48535;102039.9;;;;-72
2022/08/27 19:34:21;;;;;;;;;;;;;;;19.3;47.77832;102040.5;;;;-75
2022/08/27 19:39:19;;;;;;;;;;;;;;;19.19;47.99512;102045.7;;;;-75
2022/08/27 19:44:20;;;;;;;;;;;;;;;19.09;48.1084;102053;;;;-76
2022/08/27 19:49:19;;;;;;;;;;;;;;;18.99;48.35938;102057.3;;;;-75
2022/08/27 19:54:20;;;;;;;;;;;;;;;18.88;48.45117;102062.2;;;;-77
2022/08/27 19:54:29;;;;;;;5.8;2.2;;;;;;;;;;;;;-77
2022/08/27 19:59:19;;;;;;;;;;;;;;;18.78;48.53125;102067.8;;;;-74
2022/08/27 20:04:19;;;;;;;;;;;;;;;18.72;48.67285;102071.1;;;;-75
2022/08/27 20:09:20;;;;;;;;;;;;;;;18.62;48.85547;102074.8;;;;-74
2022/08/27 20:14:22;;;;;;;;;;;;;;;18.5;48.86523;102073.2;;;;-76
2022/08/27 20:19:22;;;;;;;;;;;;;;;18.41;49.04785;102065.5;;;;-75
2022/08/27 20:24:20;;;;;;;;;;;;;;;18.29;49.14941;102066.4;;;;-75
2022/08/27 20:24:31;;;;;;;6;2.1;;;;;;;;;;;;;-73
2022/08/27 20:29:20;;;;;;;;;;;;;;;18.22;49.41309;102073.7;;;;-75
2022/08/27 20:34:19;;;;;;;;;;;;;;;18.12;49.40137;102075.8;;;;-75
2022/08/27 20:39:19;;;;;;;;;;;;;;;18.05;49.59863;102076.9;;;;-76
2022/08/27 20:44:19;;;;;;;;;;;;;;;17.96;49.74707;102078.2;;;;-75
2022/08/27 20:49:20;;;;;;;;;;;;;;;17.9;49.77539;102081.2;;;;-75
2022/08/27 20:54:19;;;;;;;;;;;;;;;17.83;50.02832;102085;;;;-75
2022/08/27 20:54:34;;;;;;;3.8;2;;;;;;;;;;;;;-76
2022/08/27 21:04:19;;;;;;;;;;;;;;;17.69;50.27344;102088.1;;;;-74
2022/08/27 21:09:19;;;;;;;;;;;;;;;17.61;50.23047;102091.2;;;;-75
2022/08/27 21:14:19;;;;;;;;;;;;;;;17.56;50.67871;102089.6;;;;-74
2022/08/27 21:19:19;;;;;;;;;;;;;;;17.5;50.55762;102088.5;;;;-73
2022/08/27 21:24:19;;;;;;;;;;;;;;;17.44;50.57324;102090.6;;;;-74
2022/08/27 21:24:36;;;;;;;6.6;2;;;;;;;;;;;;;-73
2022/08/27 21:29:22;;;;;;;;;;;;;;;17.34;50.58398;102089.3;;;;-75
2022/08/27 21:34:20;;;;;;;;;;;;;;;17.28;50.75977;102096.5;;;;-74
2022/08/27 21:39:19;;;;;;;;;;;;;;;17.22;50.82129;102099;;;;-74
2022/08/27 21:44:21;;;;;;;;;;;;;;;17.16;50.84766;102097.9;;;;-74
2022/08/27 21:49:19;;;;;;;;;;;;;;;17.08;50.88477;102098;;;;-75
2022/08/27 21:54:19;;;;;;;;;;;;;;;16.99;51.04297;102095.5;;;;-75
2022/08/27 21:54:39;;;;;;;9.2;1.8;;;;;;;;;;;;;-75
2022/08/27 21:59:20;;;;;;;;;;;;;;;16.92;51.27246;102095.6;;;;-75
2022/08/27 22:04:19;;;;;;;;;;;;;;;16.84;51.35352;102096.8;;;;-76
2022/08/27 22:09:20;;;;;;;;;;;;;;;16.78;51.54102;102097.9;;;;-75
2022/08/27 22:14:19;;;;;;;;;;;;;;;16.71;51.45313;102102.9;;;;-75
2022/08/27 22:19:19;;;;;;;;;;;;;;;16.64;51.72754;102104.9;;;;-75
2022/08/27 22:24:19;;;;;;;;;;;;;;;16.58;51.92383;102108.8;;;;-75
2022/08/27 22:24:41;;;;;;;4.2;1.9;;;;;;;;;;;;;-75
2022/08/27 22:29:19;;;;;;;;;;;;;;;16.5;51.99316;102107.6;;;;-75
2022/08/27 22:34:19;;;;;;;;;;;;;;;16.42;52.0752;102109;;;;-75
2022/08/27 22:39:19;;;;;;;;;;;;;;;16.35;52.27148;102114.6;;;;-74
2022/08/27 22:44:22;;;;;;;;;;;;;;;16.3;52.24121;102116;;;;-75
2022/08/27 22:49:19;;;;;;;;;;;;;;;16.24;52.3916;102119.1;;;;-76
2022/08/27 22:54:19;;;;;;;;;;;;;;;16.15;52.6084;102123;;;;-74
2022/08/27 22:54:43;;;;;;;5.6;1.9;;;;;;;;;;;;;-74
2022/08/27 22:59:19;;;;;;;;;;;;;;;16.07;52.76758;102122.9;;;;-76
2022/08/27 23:04:19;;;;;;;;;;;;;;;16.02;52.77246;102125;;;;-72
2022/08/27 23:09:19;;;;;;;;;;;;;;;15.96;52.82227;102124.9;;;;-75
2022/08/27 23:14:19;;;;;;;;;;;;;;;15.89;53.04004;102123;;;;-74
2022/08/27 23:19:19;;;;;;;;;;;;;;;15.85;53.09082;102125.1;;;;-74
2022/08/27 23:24:23;;;;;;;;;;;;;;;15.82;53.11133;102122.8;;;;-74
2022/08/27 23:29:21;;;;;;;;;;;;;;;15.8;53.2207;102124.7;;;;-76
2022/08/27 23:34:20;;;;;;;;;;;;;;;15.77;53.23828;102122.9;;;;-74
2022/08/27 23:39:20;;;;;;;;;;;;;;;15.76;53.38574;102127.7;;;;-75
2022/08/27 23:44:20;;;;;;;;;;;;;;;15.78;53.24219;102121.8;;;;-75
2022/08/27 23:49:19;;;;;;;;;;;;;;;15.81;53.30176;102125.5;;;;-75
2022/08/27 23:54:19;;;;;;;;;;;;;;;15.82;53.3252;102121.1;;;;-74
2022/08/27 23:54:47;;;;;;;5.9;1.9;;;;;;;;;;;;;-74
2022/08/27 23:59:19;;;;;;;;;;;;;;;15.84;53.33887;102120.9;;;;-74
